createdAt,value
2022-10-05T00:01:57.054Z,94.98
2022-10-05T00:04:07.603Z,95.54
2022-10-05T00:06:10.767Z,95.62
2022-10-05T00:08:16.791Z,95.22
2022-10-05T00:10:20.827Z,95.17
2022-10-05T00:12:24.400Z,95.86
2022-10-05T00:14:30.403Z,95.09
2022-10-05T00:16:33.410Z,94.96
2022-10-05T00:18:36.484Z,95.44
2022-10-05T00:20:41.891Z,95.91
2022-10-05T00:22:44.853Z,95.34
2022-10-05T00:24:50.903Z,95.15
2022-10-05T00:26:57.751Z,95.35
2022-10-05T00:29:03.043Z,96.16
2022-10-05T00:31:12.432Z,96.63
2022-10-05T00:33:15.550Z,96.78
2022-10-05T00:35:19.941Z,96.39
2022-10-05T00:37:22.922Z,96.50
2022-10-05T00:39:26.924Z,96.94
2022-10-05T00:41:36.458Z,96.68
2022-10-05T00:44:12.933Z,94.65
2022-10-05T00:46:19.707Z,94.54
2022-10-05T00:48:26.382Z,94.90
2022-10-05T00:50:49.599Z,95.00
2022-10-05T00:52:57.085Z,94.31
2022-10-05T00:55:05.907Z,94.63
2022-10-05T00:57:24.783Z,95.48
2022-10-05T00:59:42.515Z,95.21
2022-10-05T01:03:00.158Z,95.48
2022-10-05T01:05:07.490Z,95.72
2022-10-05T01:07:17.024Z,96.76
2022-10-05T01:09:26.507Z,96.72
2022-10-05T01:11:33.153Z,96.33
2022-10-05T01:13:44.837Z,96.52
2022-10-05T01:15:54.316Z,95.70
2022-10-05T01:18:02.078Z,95.26
2022-10-05T01:20:24.208Z,95.18
2022-10-05T01:22:37.699Z,96.26
2022-10-05T01:24:48.171Z,95.16
2022-10-05T01:27:03.271Z,96.12
2022-10-05T01:29:11.790Z,95.49
2022-10-05T01:31:18.987Z,95.77
2022-10-05T01:33:27.578Z,96.50
2022-10-05T01:35:37.856Z,95.99
2022-10-05T01:37:47.281Z,95.58
2022-10-05T01:39:53.872Z,95.51
2022-10-05T01:42:00.098Z,94.90
2022-10-05T01:44:07.959Z,94.91
2022-10-05T01:46:19.675Z,94.31
2022-10-05T01:48:28.571Z,95.13
2022-10-05T01:50:41.407Z,94.82
2022-10-05T01:52:49.515Z,95.04
2022-10-05T01:55:02.702Z,95.71
2022-10-05T01:57:16.419Z,95.28
2022-10-05T01:59:27.460Z,95.09
2022-10-05T02:01:37.560Z,95.18
2022-10-05T02:03:44.863Z,94.65
2022-10-05T02:05:51.731Z,94.49
2022-10-05T02:07:58.185Z,94.92
2022-10-05T02:10:05.958Z,94.84
2022-10-05T02:12:13.999Z,94.73
2022-10-05T02:14:20.603Z,95.10
2022-10-05T02:16:30.059Z,94.43
2022-10-05T02:18:37.821Z,95.16
2022-10-05T02:20:41.993Z,94.89
2022-10-05T02:22:48.132Z,94.64
2022-10-05T02:24:54.538Z,94.36
2022-10-05T02:26:57.971Z,94.98
2022-10-05T02:29:04.408Z,94.18
2022-10-05T02:31:10.369Z,94.93
2022-10-05T02:33:20.415Z,94.94
2022-10-05T02:35:24.259Z,95.22
2022-10-05T02:37:35.750Z,94.71
2022-10-05T02:39:45.120Z,93.80
2022-10-05T02:41:52.855Z,94.21
2022-10-05T02:44:01.476Z,94.79
2022-10-05T02:46:12.541Z,95.28
2022-10-05T02:48:24.159Z,95.71
2022-10-05T02:50:32.207Z,95.92
2022-10-05T02:52:42.199Z,95.98
2022-10-05T02:54:51.330Z,95.79
2022-10-05T02:56:59.267Z,95.81
2022-10-05T02:59:07.375Z,95.48
2022-10-05T03:01:14.941Z,95.77
2022-10-05T03:03:25.138Z,95.42
2022-10-05T03:05:31.910Z,95.40
2022-10-05T03:07:37.603Z,94.80
2022-10-05T03:09:44.920Z,94.79
2022-10-05T03:11:54.145Z,94.73
2022-10-05T03:14:03.394Z,95.05
2022-10-05T03:16:25.670Z,94.94
2022-10-05T03:18:41.762Z,94.75
2022-10-05T03:20:48.571Z,94.45
2022-10-05T03:22:54.041Z,94.09
2022-10-05T03:25:13.689Z,94.57
2022-10-05T03:27:24.815Z,94.76
2022-10-05T03:29:34.110Z,94.07
2022-10-05T03:31:40.843Z,93.88
2022-10-05T03:33:48.319Z,94.24
2022-10-05T03:35:54.820Z,94.47
2022-10-05T03:38:06.450Z,94.52
2022-10-05T03:40:13.721Z,95.15
2022-10-05T03:42:22.181Z,95.45
2022-10-05T03:44:36.250Z,95.16
2022-10-05T03:46:49.580Z,95.27
2022-10-05T03:49:00.302Z,94.40
2022-10-05T03:51:09.044Z,95.10
2022-10-05T03:53:17.476Z,94.54
2022-10-05T03:55:26.199Z,94.52
2022-10-05T03:57:31.108Z,95.37
2022-10-05T03:59:41.468Z,94.83
2022-10-05T04:01:46.869Z,94.60
2022-10-05T04:03:52.967Z,95.29
2022-10-05T04:06:00.583Z,96.32
2022-10-05T04:08:08.307Z,96.50
2022-10-05T04:10:16.028Z,95.80
2022-10-05T04:12:24.664Z,96.37
2022-10-05T04:14:32.155Z,95.88
2022-10-05T04:16:37.550Z,95.95
2022-10-05T04:18:44.624Z,96.99
2022-10-05T04:20:52.278Z,97.24
2022-10-05T04:23:03.485Z,97.23
2022-10-05T04:25:13.982Z,97.13
2022-10-05T04:27:19.504Z,97.23
2022-10-05T04:29:31.120Z,97.77
2022-10-05T04:31:44.329Z,97.56
2022-10-05T04:33:55.791Z,97.08
2022-10-05T04:36:09.064Z,97.63
2022-10-05T04:38:38.158Z,97.02
2022-10-05T04:40:50.058Z,97.41
2022-10-05T04:43:02.274Z,97.54
2022-10-05T04:45:15.234Z,97.24
2022-10-05T04:47:30.104Z,97.42
2022-10-05T04:49:51.961Z,98.02
2022-10-05T04:51:58.885Z,97.91
2022-10-05T04:54:09.743Z,97.19
2022-10-05T04:56:16.463Z,96.84
2022-10-05T04:58:30.610Z,97.40
2022-10-05T05:00:42.690Z,96.99
2022-10-05T05:02:58.451Z,96.69
2022-10-05T05:05:15.047Z,97.69
2022-10-05T05:07:28.938Z,97.28
2022-10-05T05:09:58.919Z,97.41
2022-10-05T05:12:12.106Z,97.95
2022-10-05T05:14:28.648Z,97.80
2022-10-05T05:16:35.140Z,97.78
2022-10-05T05:19:30.725Z,98.25
2022-10-05T05:21:39.118Z,96.68
2022-10-05T05:23:45.871Z,97.09
2022-10-05T05:25:57.077Z,97.76
2022-10-05T05:28:11.669Z,97.58
2022-10-05T05:30:22.406Z,97.79
2022-10-05T05:32:36.446Z,97.51
2022-10-05T05:34:52.823Z,97.55
2022-10-05T05:36:58.601Z,97.91
2022-10-05T05:39:16.550Z,97.73
2022-10-05T05:41:29.168Z,98.37
2022-10-05T05:43:36.130Z,99.18
2022-10-05T05:45:42.577Z,98.54
2022-10-05T05:47:53.738Z,99.26
2022-10-05T05:50:10.771Z,98.14
2022-10-05T05:52:19.359Z,98.30
2022-10-05T05:54:27.989Z,98.15
2022-10-05T05:56:36.078Z,98.19
2022-10-05T05:58:45.042Z,97.27
2022-10-05T06:00:52.162Z,97.33
2022-10-05T06:02:58.403Z,97.01
2022-10-05T06:05:20.042Z,97.37
2022-10-05T06:07:30.384Z,99.00
2022-10-05T06:09:36.837Z,98.70
2022-10-05T06:12:04.515Z,98.46
2022-10-05T06:14:14.040Z,99.89
2022-10-05T06:16:22.060Z,99.37
2022-10-05T06:18:26.812Z,99.75
2022-10-05T06:20:36.775Z,100.00
2022-10-05T06:22:42.303Z,100.00
2022-10-05T06:24:54.251Z,100.00
2022-10-05T06:27:24.726Z,99.60
2022-10-05T06:29:38.329Z,99.75
2022-10-05T06:31:59.177Z,99.35
2022-10-05T06:34:10.153Z,99.53
2022-10-05T06:36:21.459Z,99.21
2022-10-05T06:38:34.889Z,99.13
2022-10-05T06:40:46.384Z,99.14
2022-10-05T06:43:03.923Z,98.84
2022-10-05T06:45:18.829Z,99.68
2022-10-05T06:47:41.551Z,99.41
2022-10-05T06:49:58.349Z,98.72
2022-10-05T06:52:22.393Z,98.25
2022-10-05T06:54:38.839Z,99.03
2022-10-05T06:56:45.937Z,98.13
2022-10-05T06:58:53.955Z,99.99
2022-10-05T07:01:00.037Z,97.69
2022-10-05T07:03:10.587Z,98.37
2022-10-05T07:05:55.420Z,95.73
2022-10-05T07:08:00.189Z,95.91
2022-10-05T07:10:15.711Z,96.66
2022-10-05T07:12:33.642Z,97.84
2022-10-05T07:14:51.262Z,96.69
2022-10-05T07:17:05.112Z,94.98
2022-10-05T07:19:20.034Z,94.88
2022-10-05T07:21:30.897Z,93.20
2022-10-05T07:23:49.442Z,93.23
2022-10-05T07:25:58.604Z,92.20
2022-10-05T07:28:06.428Z,91.57
2022-10-05T07:30:13.347Z,92.54
2022-10-05T07:32:31.277Z,93.12
2022-10-05T07:34:43.663Z,93.54
2022-10-05T07:37:09.417Z,94.29
2022-10-05T07:39:18.164Z,93.06
2022-10-05T07:41:28.028Z,93.71
2022-10-05T07:44:00.574Z,93.10
2022-10-05T07:46:09.694Z,93.40
2022-10-05T07:48:19.993Z,92.70
2022-10-05T07:50:26.905Z,92.53
2022-10-05T07:52:35.014Z,93.82
2022-10-05T07:54:46.840Z,94.93
2022-10-05T07:56:55.865Z,94.45
2022-10-05T07:59:03.006Z,94.30
2022-10-05T08:01:11.150Z,93.87
2022-10-05T08:03:24.758Z,94.39
2022-10-05T08:05:30.798Z,93.50
2022-10-05T08:07:35.950Z,91.38
2022-10-05T08:09:40.505Z,92.42
2022-10-05T08:11:48.575Z,89.69
2022-10-05T08:13:56.204Z,88.56
2022-10-05T08:16:01.616Z,89.56
2022-10-05T08:18:15.379Z,87.77
2022-10-05T08:20:29.610Z,90.07
2022-10-05T08:22:39.547Z,87.96
2022-10-05T08:24:45.288Z,89.42
2022-10-05T08:26:52.195Z,88.67
2022-10-05T08:29:02.024Z,89.90
2022-10-05T08:31:12.166Z,89.13
2022-10-05T08:33:18.515Z,87.81
2022-10-05T08:35:28.037Z,90.01
2022-10-05T08:37:35.292Z,88.53
2022-10-05T08:39:41.352Z,89.05
2022-10-05T08:42:28.033Z,87.69
2022-10-05T08:45:07.665Z,87.76
2022-10-05T08:47:35.047Z,88.34
2022-10-05T08:50:03.819Z,87.87
2022-10-05T08:52:23.790Z,86.37
2022-10-05T08:54:46.656Z,84.35
2022-10-05T08:56:55.464Z,85.10
2022-10-05T08:59:11.946Z,82.72
2022-10-05T09:01:21.693Z,82.63
2022-10-05T09:04:01.265Z,83.04
2022-10-05T09:06:23.087Z,83.74
2022-10-05T09:08:56.515Z,84.47
2022-10-05T09:11:04.799Z,82.09
2022-10-05T09:13:29.743Z,81.40
2022-10-05T09:15:46.112Z,80.17
2022-10-05T09:18:18.381Z,80.53
2022-10-05T09:20:30.750Z,82.38
2022-10-05T09:22:47.580Z,78.69
2022-10-05T09:24:57.081Z,78.02
2022-10-05T09:27:08.980Z,78.99
2022-10-05T09:29:36.432Z,77.31
2022-10-05T09:31:52.398Z,77.02
2022-10-05T09:34:22.980Z,78.85
2022-10-05T09:36:47.231Z,79.83
2022-10-05T09:39:14.850Z,77.53
2022-10-05T09:41:47.678Z,78.39
2022-10-05T09:44:29.063Z,77.69
2022-10-05T09:46:58.176Z,77.58
2022-10-05T09:49:22.404Z,79.27
2022-10-05T09:52:02.728Z,78.33
2022-10-05T09:54:43.150Z,75.76
2022-10-05T09:57:24.664Z,75.64
2022-10-05T09:59:52.882Z,75.60
2022-10-05T10:02:14.966Z,77.04
2022-10-05T10:04:30.394Z,76.56
2022-10-05T10:06:51.302Z,76.99
2022-10-05T10:09:08.747Z,75.42
2022-10-05T10:11:40.324Z,78.81
2022-10-05T10:14:09.338Z,76.53
2022-10-05T10:16:23.591Z,75.60
2022-10-05T10:19:03.918Z,74.69
2022-10-05T10:21:45.450Z,74.97
2022-10-05T10:24:06.359Z,73.77
2022-10-05T10:26:30.404Z,74.42
2022-10-05T10:28:57.120Z,74.50
2022-10-05T10:31:12.973Z,73.78
2022-10-05T10:33:26.764Z,73.38
2022-10-05T10:35:33.517Z,74.61
2022-10-05T10:37:40.681Z,73.47
2022-10-05T10:40:00.342Z,72.90
2022-10-05T10:42:26.456Z,73.62
2022-10-05T10:44:59.351Z,75.01
2022-10-05T10:47:40.524Z,74.18
2022-10-05T10:50:00.052Z,77.48
2022-10-05T10:52:33.581Z,78.04
2022-10-05T10:55:15.829Z,75.32
2022-10-05T10:57:26.660Z,74.94
2022-10-05T11:00:09.031Z,74.06
2022-10-05T11:02:27.987Z,74.55
2022-10-05T11:05:04.682Z,74.71
2022-10-05T11:07:26.157Z,74.78
2022-10-05T11:09:42.000Z,74.41
2022-10-05T11:12:28.933Z,74.25
2022-10-05T11:14:55.391Z,75.60
2022-10-05T11:17:26.160Z,73.87
2022-10-05T11:20:04.776Z,74.30
2022-10-05T11:22:32.343Z,75.46
2022-10-05T11:25:04.135Z,74.13
2022-10-05T11:27:51.704Z,74.91
2022-10-05T11:30:26.859Z,74.09
2022-10-05T11:32:57.571Z,73.53
2022-10-05T11:35:21.073Z,73.61
2022-10-05T11:38:09.815Z,74.12
2022-10-05T11:41:03.173Z,74.21
2022-10-05T11:43:30.511Z,73.48
2022-10-05T11:45:40.750Z,73.41
2022-10-05T11:47:53.764Z,73.63
2022-10-05T11:50:06.443Z,73.45
2022-10-05T11:52:14.333Z,72.92
2022-10-05T11:54:32.470Z,73.21
2022-10-05T11:56:41.360Z,73.74
2022-10-05T11:58:49.609Z,73.73
2022-10-05T12:00:58.767Z,73.95
2022-10-05T12:03:20.272Z,74.13
2022-10-05T12:05:28.404Z,73.48
2022-10-05T12:07:37.044Z,73.33
2022-10-05T12:10:09.330Z,73.71
2022-10-05T12:12:15.600Z,73.50
2022-10-05T12:14:26.267Z,74.04
2022-10-05T12:16:34.218Z,73.83
2022-10-05T12:18:48.147Z,74.08
2022-10-05T12:20:57.097Z,74.43
2022-10-05T12:23:04.170Z,74.29
2022-10-05T12:25:21.513Z,74.99
2022-10-05T12:27:26.707Z,73.90
2022-10-05T12:29:38.871Z,74.87
2022-10-05T12:31:47.010Z,74.84
2022-10-05T12:33:57.111Z,75.58
2022-10-05T12:36:04.508Z,75.63
2022-10-05T12:38:17.568Z,75.60
2022-10-05T12:40:27.985Z,75.04
2022-10-05T12:42:40.848Z,76.23
2022-10-05T12:45:01.225Z,74.20
2022-10-05T12:47:10.468Z,75.60
2022-10-05T12:49:23.454Z,77.40
2022-10-05T12:51:35.769Z,75.59
2022-10-05T12:53:48.469Z,75.49
2022-10-05T12:56:00.502Z,75.70
2022-10-05T12:58:14.399Z,75.67
2022-10-05T13:00:22.973Z,75.51
2022-10-05T13:02:32.909Z,74.49
2022-10-05T13:04:42.954Z,73.81
2022-10-05T13:06:54.856Z,74.16
2022-10-05T13:09:00.615Z,75.38
2022-10-05T13:11:14.097Z,73.72
2022-10-05T13:13:34.625Z,74.39
2022-10-05T13:15:42.502Z,74.93
2022-10-05T13:17:51.946Z,75.45
2022-10-05T13:19:58.403Z,75.06
2022-10-05T13:22:27.099Z,75.04
2022-10-05T13:24:32.637Z,74.43
2022-10-05T13:26:37.301Z,73.48
2022-10-05T13:28:45.255Z,74.16
2022-10-05T13:30:55.327Z,73.43
2022-10-05T13:33:02.248Z,73.06
2022-10-05T13:35:21.320Z,73.62
2022-10-05T13:37:32.845Z,74.04
2022-10-05T13:39:55.462Z,73.80
2022-10-05T13:42:02.730Z,75.18
2022-10-05T13:44:15.444Z,74.10
2022-10-05T13:46:25.593Z,74.31
2022-10-05T13:48:46.394Z,75.89
2022-10-05T13:50:55.271Z,75.10
2022-10-05T13:53:04.198Z,77.29
2022-10-05T13:55:15.448Z,75.66
2022-10-05T13:57:29.896Z,74.37
2022-10-05T13:59:38.134Z,74.27
2022-10-05T14:01:43.314Z,74.68
2022-10-05T14:04:05.476Z,75.14
2022-10-05T14:06:13.856Z,74.22
2022-10-05T14:08:18.626Z,72.69
2022-10-05T14:10:38.167Z,73.06
2022-10-05T14:12:42.647Z,73.25
2022-10-05T14:14:48.637Z,72.59
2022-10-05T14:16:54.756Z,72.05
2022-10-05T14:18:59.777Z,70.53
2022-10-05T14:21:05.167Z,71.36
2022-10-05T14:23:18.449Z,71.40
2022-10-05T14:25:26.992Z,70.05
2022-10-05T14:27:31.703Z,69.76
2022-10-05T14:29:36.305Z,70.22
2022-10-05T14:31:48.810Z,70.86
2022-10-05T14:33:51.798Z,70.17
2022-10-05T14:35:56.298Z,71.59
2022-10-05T14:38:01.002Z,71.58
2022-10-05T14:40:23.409Z,72.60
2022-10-05T14:42:29.883Z,72.54
2022-10-05T14:44:33.779Z,72.95
2022-10-05T14:46:38.493Z,72.98
2022-10-05T14:48:42.909Z,73.17
2022-10-05T14:50:53.150Z,73.94
2022-10-05T14:53:10.919Z,73.24
2022-10-05T14:55:31.864Z,73.25
2022-10-05T14:57:42.608Z,72.66
2022-10-05T15:00:07.438Z,73.04
2022-10-05T15:02:24.229Z,73.99
2022-10-05T15:04:45.515Z,74.65
2022-10-05T15:06:55.499Z,73.84
2022-10-05T15:09:17.613Z,73.77
2022-10-05T15:11:30.732Z,75.22
2022-10-05T15:13:38.986Z,74.42
2022-10-05T15:15:46.420Z,74.94
2022-10-05T15:17:52.801Z,75.41
2022-10-05T15:20:01.687Z,76.00
2022-10-05T15:22:14.455Z,75.99
2022-10-05T15:24:20.242Z,75.15
2022-10-05T15:26:33.103Z,75.22
2022-10-05T15:28:42.440Z,75.76
2022-10-05T15:30:52.624Z,75.63
2022-10-05T15:33:09.195Z,75.68
2022-10-05T15:35:30.060Z,76.06
2022-10-05T15:37:38.043Z,76.47
2022-10-05T15:39:45.786Z,76.63
2022-10-05T15:42:00.266Z,76.66
2022-10-05T15:44:10.991Z,76.21
2022-10-05T15:46:18.910Z,76.62
2022-10-05T15:48:29.127Z,76.50
2022-10-05T15:50:37.228Z,76.55
2022-10-05T15:52:45.150Z,76.76
2022-10-05T15:55:10.571Z,77.14
2022-10-05T15:57:19.429Z,77.31
2022-10-05T15:59:29.353Z,77.07
2022-10-05T16:01:46.777Z,77.04
2022-10-05T16:03:52.087Z,78.48
2022-10-05T16:06:15.739Z,78.80
2022-10-05T16:08:54.206Z,78.57
2022-10-05T16:10:58.128Z,78.72
2022-10-05T16:13:13.464Z,79.75
2022-10-05T16:15:26.193Z,79.89
2022-10-05T16:17:44.957Z,81.10
2022-10-05T16:20:03.749Z,80.76
2022-10-05T16:22:14.945Z,81.63
2022-10-05T16:24:25.830Z,81.51
2022-10-05T16:26:38.533Z,81.88
2022-10-05T16:28:50.818Z,82.25
2022-10-05T16:31:00.496Z,82.18
2022-10-05T16:33:07.558Z,81.77
2022-10-05T16:35:17.486Z,81.72
2022-10-05T16:37:28.180Z,81.93
2022-10-05T16:39:48.457Z,81.45
2022-10-05T16:41:57.867Z,82.27
2022-10-05T16:44:08.181Z,82.39
2022-10-05T16:46:20.845Z,82.10
2022-10-05T16:48:27.389Z,82.29
2022-10-05T16:50:36.983Z,81.98
2022-10-05T16:52:41.463Z,82.05
2022-10-05T16:54:48.125Z,82.86
2022-10-05T16:56:55.286Z,81.96
2022-10-05T16:59:05.220Z,82.78
2022-10-05T17:01:17.484Z,82.59
2022-10-05T17:03:28.697Z,84.16
2022-10-05T17:05:41.921Z,84.70
2022-10-05T17:07:56.909Z,83.65
2022-10-05T17:10:18.641Z,83.49
2022-10-05T17:12:48.016Z,84.69
2022-10-05T17:14:59.347Z,86.12
2022-10-05T17:17:30.924Z,86.15
2022-10-05T17:19:54.954Z,86.27
2022-10-05T17:22:00.841Z,87.39
2022-10-05T17:24:18.926Z,88.14
2022-10-05T17:26:40.533Z,88.10
2022-10-05T17:29:00.029Z,89.76
2022-10-05T17:31:14.647Z,88.47
2022-10-05T17:33:24.809Z,88.22
2022-10-05T17:35:43.563Z,88.29
2022-10-05T17:38:09.177Z,90.09
2022-10-05T17:40:35.261Z,89.15
2022-10-05T17:42:49.557Z,90.54
2022-10-05T17:44:55.424Z,89.16
2022-10-05T17:46:59.843Z,89.89
2022-10-05T17:49:19.037Z,89.88
2022-10-05T17:52:13.016Z,89.69
2022-10-05T17:54:38.331Z,91.73
2022-10-05T17:57:16.182Z,91.13
2022-10-05T17:59:38.749Z,92.47
2022-10-05T18:01:42.016Z,91.99
2022-10-05T18:03:46.324Z,91.67
2022-10-05T18:06:33.294Z,91.67
2022-10-05T18:08:38.354Z,92.91
2022-10-05T18:11:06.793Z,92.18
2022-10-05T18:13:20.851Z,92.97
2022-10-05T18:15:49.231Z,92.55
2022-10-05T18:17:54.738Z,91.30
2022-10-05T18:20:18.974Z,92.17
2022-10-05T18:22:30.235Z,92.46
2022-10-05T18:25:03.737Z,93.27
2022-10-05T18:27:38.313Z,93.89
2022-10-05T18:30:05.571Z,93.44
2022-10-05T18:32:18.945Z,95.29
2022-10-05T18:34:28.555Z,95.26
2022-10-05T18:36:42.938Z,95.25
2022-10-05T18:38:53.763Z,95.74
2022-10-05T18:41:01.481Z,95.75
2022-10-05T18:43:18.097Z,95.42
2022-10-05T18:45:25.603Z,95.82
2022-10-05T18:47:32.898Z,95.64
2022-10-05T18:49:44.946Z,95.35
2022-10-05T18:51:52.147Z,95.35
2022-10-05T18:54:06.198Z,95.60
2022-10-05T18:56:19.306Z,94.89
2022-10-05T18:58:25.975Z,95.24
2022-10-05T19:00:36.047Z,96.34
2022-10-05T19:02:42.930Z,96.75
2022-10-05T19:04:55.084Z,97.30
2022-10-05T19:07:08.693Z,96.34
2022-10-05T19:09:24.290Z,94.98
2022-10-05T19:11:34.312Z,94.93
2022-10-05T19:13:43.494Z,96.49
2022-10-05T19:15:53.399Z,96.40
2022-10-05T19:18:22.190Z,97.38
2022-10-05T19:20:28.431Z,97.34
2022-10-05T19:22:42.117Z,97.73
2022-10-05T19:24:57.280Z,97.01
2022-10-05T19:27:09.377Z,96.11
2022-10-05T19:29:23.915Z,97.30
2022-10-05T19:31:32.056Z,96.58
2022-10-05T19:33:45.984Z,97.73
2022-10-05T19:35:58.413Z,98.09
2022-10-05T19:38:15.637Z,97.48
2022-10-05T19:40:26.350Z,97.29
2022-10-05T19:42:47.863Z,97.48
2022-10-05T19:45:02.615Z,97.49
2022-10-05T19:47:17.374Z,98.17
2022-10-05T19:49:35.917Z,97.64
2022-10-05T19:51:49.661Z,98.05
2022-10-05T19:53:55.945Z,97.73
2022-10-05T19:56:17.013Z,98.01
2022-10-05T19:58:21.997Z,96.82
2022-10-05T20:00:27.027Z,95.54
2022-10-05T20:02:32.514Z,96.84
2022-10-05T20:04:37.410Z,95.95
2022-10-05T20:06:40.481Z,97.35
2022-10-05T20:08:45.554Z,96.30
2022-10-05T20:11:12.145Z,98.02
2022-10-05T20:13:22.385Z,96.99
2022-10-05T20:15:44.815Z,95.54
2022-10-05T20:18:05.466Z,97.70
2022-10-05T20:20:38.191Z,97.13
2022-10-05T20:22:46.377Z,98.43
2022-10-05T20:24:53.609Z,98.80
2022-10-05T20:27:02.721Z,98.70
2022-10-05T20:29:09.723Z,97.52
2022-10-05T20:31:14.450Z,97.36
2022-10-05T20:33:17.470Z,97.89
2022-10-05T20:35:22.334Z,97.61
2022-10-05T20:37:25.637Z,98.09
2022-10-05T20:39:30.432Z,96.96
2022-10-05T20:41:35.781Z,96.81
2022-10-05T20:43:40.429Z,96.82
2022-10-05T20:45:44.233Z,99.02
2022-10-05T20:47:47.604Z,97.05
2022-10-05T20:49:50.571Z,98.05
2022-10-05T20:51:55.701Z,98.33
2022-10-05T20:53:58.769Z,97.36
2022-10-05T20:56:04.430Z,97.65
2022-10-05T20:58:08.950Z,97.05
2022-10-05T21:00:14.633Z,96.94
2022-10-05T21:02:18.818Z,97.68
2022-10-05T21:04:23.319Z,97.61
2022-10-05T21:06:28.582Z,97.07
2022-10-05T21:08:31.708Z,96.79
2022-10-05T21:10:36.843Z,98.46
2022-10-05T21:12:39.912Z,96.36
2022-10-05T21:14:43.116Z,96.22
2022-10-05T21:16:47.540Z,95.79
2022-10-05T21:18:50.539Z,97.87
2022-10-05T21:20:53.417Z,97.97
2022-10-05T21:22:56.360Z,97.05
2022-10-05T21:24:59.372Z,97.41
2022-10-05T21:27:02.803Z,97.36
2022-10-05T21:29:09.033Z,97.74
2022-10-05T21:31:15.223Z,97.77
2022-10-05T21:33:19.777Z,97.84
2022-10-05T21:35:22.736Z,97.38
2022-10-05T21:37:25.761Z,96.55
2022-10-05T21:39:28.669Z,95.92
2022-10-05T21:41:31.654Z,97.16
2022-10-05T21:43:34.580Z,97.14
2022-10-05T21:45:37.657Z,97.59
2022-10-05T21:47:41.275Z,97.38
2022-10-05T21:49:45.982Z,96.50
2022-10-05T21:51:49.195Z,96.35
2022-10-05T21:53:54.894Z,95.63
2022-10-05T21:56:02.716Z,96.18
2022-10-05T21:58:05.927Z,97.10
2022-10-05T22:00:10.443Z,96.05
2022-10-05T22:02:13.477Z,96.89
2022-10-05T22:04:16.405Z,97.22
2022-10-05T22:06:20.881Z,96.42
2022-10-05T22:08:26.131Z,97.00
2022-10-05T22:10:29.154Z,97.48
2022-10-05T22:12:32.563Z,97.02
2022-10-05T22:14:35.558Z,97.54
2022-10-05T22:16:38.868Z,96.79
2022-10-05T22:18:42.013Z,96.75
2022-10-05T22:20:46.068Z,97.41
2022-10-05T22:22:50.483Z,97.08
2022-10-05T22:24:53.945Z,97.16
2022-10-05T22:26:56.878Z,97.51
2022-10-05T22:29:01.678Z,97.03
2022-10-05T22:31:05.988Z,96.90
2022-10-05T22:33:09.448Z,96.81
2022-10-05T22:35:12.415Z,96.43
2022-10-05T22:37:15.606Z,96.74
2022-10-05T22:39:19.950Z,97.32
2022-10-05T22:41:22.890Z,96.76
2022-10-05T22:43:26.948Z,96.96
2022-10-05T22:45:32.624Z,96.90
2022-10-05T22:47:36.181Z,98.17
2022-10-05T22:49:39.280Z,98.32
2022-10-05T22:51:42.474Z,97.53
2022-10-05T22:53:45.382Z,98.07
2022-10-05T22:55:49.804Z,97.58
2022-10-05T22:57:52.756Z,97.12
2022-10-05T22:59:55.746Z,97.31
2022-10-05T23:01:59.261Z,97.26
2022-10-05T23:04:02.395Z,97.52
2022-10-05T23:06:06.937Z,97.07
2022-10-05T23:08:09.828Z,97.60
2022-10-05T23:10:15.750Z,97.24
2022-10-05T23:12:19.967Z,96.83
2022-10-05T23:14:23.592Z,96.64
2022-10-05T23:16:28.609Z,96.41
2022-10-05T23:18:31.901Z,96.99
2022-10-05T23:20:35.024Z,96.90
2022-10-05T23:22:38.277Z,97.06
2022-10-05T23:24:41.189Z,96.69
2022-10-05T23:26:44.141Z,96.25
2022-10-05T23:28:49.959Z,96.84
2022-10-05T23:30:53.028Z,96.92
2022-10-05T23:32:56.012Z,96.96
2022-10-05T23:34:58.943Z,96.94
2022-10-05T23:37:01.814Z,97.34
2022-10-05T23:39:04.954Z,97.12
2022-10-05T23:41:08.922Z,96.97
2022-10-05T23:43:11.811Z,96.49
2022-10-05T23:45:16.264Z,96.97
2022-10-05T23:47:19.215Z,97.76
2022-10-05T23:49:22.120Z,97.18
2022-10-05T23:51:25.159Z,97.07
2022-10-05T23:53:28.167Z,97.13
2022-10-05T23:55:31.098Z,96.91
2022-10-05T23:57:34.068Z,97.15
2022-10-05T23:59:36.977Z,96.60
